This is the latest recevied weather packets stored in our database for station/object JS2QVS-13. If no packets are shown the sender has not sent any weather packets the latest 10 day(s).
| Time | Temp. | Humidity | Pressure | Rain* | Wind** | Luminosity | Snow |
|---|---|---|---|---|---|---|---|
| 1777355141 | 22.22° C | 51% | 1007.3 hPa | 0 mm | - | - | - |
| 1777354541 | 22.78° C | 50% | 1007.2 hPa | 0 mm | - | - | - |
| 1777353941 | 23.33° C | 48% | 1007.5 hPa | 0 mm | - | - | - |
| 1777353341 | 22.78° C | 49% | 1007.7 hPa | 0 mm | - | - | - |
| 1777352741 | 22.22° C | 52% | 1007.7 hPa | 0 mm | - | - | - |
| 1777352141 | 21.67° C | 59% | 1007.8 hPa | 0 mm | - | - | - |
| 1777351541 | 22.22° C | 58% | 1007.9 hPa | 0 mm | - | - | - |
| 1777350941 | 22.22° C | 59% | 1008 hPa | 0 mm | - | - | - |
| 1777350341 | 22.22° C | 61% | 1008 hPa | 0 mm | - | - | - |
| 1777349741 | 21.67° C | 59% | 1008.2 hPa | 0 mm | - | - | - |
| 1777349141 | 21.67° C | 60% | 1008.3 hPa | 0 mm | - | - | - |
| 1777348541 | 22.22° C | 59% | 1008.4 hPa | 0 mm | - | - | - |
| 1777347940 | 22.78° C | 57% | 1008.5 hPa | 0 mm | - | - | - |
| 1777346740 | 21.67° C | 62% | 1008.7 hPa | 0 mm | - | - | - |
| 1777346142 | 22.22° C | 62% | 1008.7 hPa | 0 mm | - | - | - |
| 1777345542 | 21.67° C | 62% | 1008.9 hPa | 0 mm | - | - | - |
| 1777344942 | 21.67° C | 62% | 1008.9 hPa | 0 mm | - | - | - |
| 1777344342 | 21.67° C | 60% | 1008.9 hPa | 0 mm | - | - | - |
| 1777343741 | 21.67° C | 60% | 1009 hPa | 0 mm | - | - | - |
| 1777343142 | 22.22° C | 60% | 1009.1 hPa | 0 mm | - | - | - |
| 1777342541 | 21.67° C | 60% | 1009.2 hPa | 0 mm | - | - | - |
| 1777341941 | 21.67° C | 60% | 1009.2 hPa | 0 mm | - | - | - |
| 1777341341 | 21.67° C | 60% | 1009.4 hPa | 0 mm | - | - | - |
| 1777340741 | 21.67° C | 60% | 1009.5 hPa | 0 mm | - | - | - |
| 1777340141 | 21.67° C | 57% | 1009.5 hPa | 0 mm | - | - | - |
* Rain latest hour (hover to see other rain measurements)
** Current wind speed in m/s (hover to see current wind gust speed)